sensor_id;sensor_type;location;lat;lon;timestamp;P1;durP1;ratioP1;P2;durP2;ratioP2
25129;SDS011;13308;50.860;13.664;2023-04-03T04:34:16;2.65;;;1.42;;
25129;SDS011;13308;50.860;13.664;2023-04-03T04:36:41;2.55;;;1.10;;
25129;SDS011;13308;50.860;13.664;2023-04-03T04:39:07;1.95;;;1.40;;
25129;SDS011;13308;50.860;13.664;2023-04-03T04:41:32;6.88;;;1.58;;
25129;SDS011;13308;50.860;13.664;2023-04-03T04:43:59;8.27;;;2.00;;
25129;SDS011;13308;50.860;13.664;2023-04-03T04:46:25;7.85;;;1.85;;
25129;SDS011;13308;50.860;13.664;2023-04-03T04:48:56;1.92;;;1.52;;
25129;SDS011;13308;50.860;13.664;2023-04-03T04:51:22;2.63;;;1.23;;
25129;SDS011;13308;50.860;13.664;2023-04-03T04:53:47;1.58;;;1.33;;
25129;SDS011;13308;50.860;13.664;2023-04-03T04:56:15;3.17;;;1.48;;
25129;SDS011;13308;50.860;13.664;2023-04-03T04:58:41;6.60;;;1.48;;
25129;SDS011;13308;50.860;13.664;2023-04-03T05:01:08;3.72;;;1.60;;
25129;SDS011;13308;50.860;13.664;2023-04-03T05:03:40;3.97;;;1.27;;
25129;SDS011;13308;50.860;13.664;2023-04-03T05:06:06;4.50;;;1.50;;
25129;SDS011;13308;50.860;13.664;2023-04-03T05:08:33;1.63;;;1.25;;
25129;SDS011;13308;50.860;13.664;2023-04-03T05:10:59;4.30;;;1.25;;
25129;SDS011;13308;50.860;13.664;2023-04-03T05:13:26;3.53;;;1.30;;
25129;SDS011;13308;50.860;13.664;2023-04-03T05:15:54;2.70;;;1.40;;
25129;SDS011;13308;50.860;13.664;2023-04-03T05:18:20;3.65;;;1.58;;
25129;SDS011;13308;50.860;13.664;2023-04-03T05:20:47;5.72;;;1.30;;
25129;SDS011;13308;50.860;13.664;2023-04-03T05:23:14;4.72;;;1.50;;
25129;SDS011;13308;50.860;13.664;2023-04-03T05:25:39;5.30;;;1.30;;
25129;SDS011;13308;50.860;13.664;2023-04-03T05:28:05;2.85;;;1.30;;
25129;SDS011;13308;50.860;13.664;2023-04-03T05:30:31;4.07;;;1.58;;
25129;SDS011;13308;50.860;13.664;2023-04-03T05:32:58;1.83;;;1.40;;
25129;SDS011;13308;50.860;13.664;2023-04-03T05:35:35;4.55;;;2.35;;
25129;SDS011;13308;50.860;13.664;2023-04-03T05:38:05;6.93;;;2.20;;
25129;SDS011;13308;50.860;13.664;2023-04-03T05:40:31;2.55;;;1.83;;
25129;SDS011;13308;50.860;13.664;2023-04-03T05:42:57;3.05;;;1.42;;
25129;SDS011;13308;50.860;13.664;2023-04-03T05:45:24;7.80;;;2.42;;
25129;SDS011;13308;50.860;13.664;2023-04-03T05:47:50;2.30;;;1.40;;
25129;SDS011;13308;50.860;13.664;2023-04-03T05:50:15;2.63;;;1.70;;
25129;SDS011;13308;50.860;13.664;2023-04-03T05:52:42;4.07;;;1.58;;
25129;SDS011;13308;50.860;13.664;2023-04-03T05:55:11;6.15;;;1.50;;
25129;SDS011;13308;50.860;13.664;2023-04-03T05:57:38;2.28;;;1.70;;
25129;SDS011;13308;50.860;13.664;2023-04-03T06:00:04;1.88;;;1.75;;
25129;SDS011;13308;50.860;13.664;2023-04-03T06:02:39;4.95;;;1.75;;
25129;SDS011;13308;50.860;13.664;2023-04-03T06:05:05;3.50;;;1.90;;
25129;SDS011;13308;50.860;13.664;2023-04-03T06:07:33;3.80;;;1.90;;
25129;SDS011;13308;50.860;13.664;2023-04-03T06:09:59;2.75;;;1.45;;
25129;SDS011;13308;50.860;13.664;2023-04-03T06:12:26;2.72;;;1.83;;
25129;SDS011;13308;50.860;13.664;2023-04-03T06:14:53;2.55;;;1.90;;
25129;SDS011;13308;50.860;13.664;2023-04-03T06:17:19;6.32;;;2.03;;
25129;SDS011;13308;50.860;13.664;2023-04-03T06:19:46;4.00;;;1.95;;
25129;SDS011;13308;50.860;13.664;2023-04-03T06:22:12;6.35;;;2.08;;
25129;SDS011;13308;50.860;13.664;2023-04-03T06:24:38;3.55;;;2.20;;
25129;SDS011;13308;50.860;13.664;2023-04-03T06:27:03;4.85;;;2.30;;
25129;SDS011;13308;50.860;13.664;2023-04-03T06:29:29;5.90;;;1.73;;
25129;SDS011;13308;50.860;13.664;2023-04-03T06:31:55;3.97;;;2.13;;
25129;SDS011;13308;50.860;13.664;2023-04-03T06:34:20;4.63;;;2.33;;
25129;SDS011;13308;50.860;13.664;2023-04-03T06:36:46;8.50;;;2.28;;
25129;SDS011;13308;50.860;13.664;2023-04-03T06:39:13;5.18;;;2.22;;
25129;SDS011;13308;50.860;13.664;2023-04-03T06:41:41;4.03;;;2.30;;
25129;SDS011;13308;50.860;13.664;2023-04-03T06:44:07;2.72;;;1.95;;
25129;SDS011;13308;50.860;13.664;2023-04-03T06:46:36;8.73;;;2.10;;
25129;SDS011;13308;50.860;13.664;2023-04-03T06:49:02;3.65;;;2.25;;
25129;SDS011;13308;50.860;13.664;2023-04-03T06:51:29;3.92;;;1.98;;
25129;SDS011;13308;50.860;13.664;2023-04-03T06:53:56;4.45;;;2.35;;
25129;SDS011;13308;50.860;13.664;2023-04-03T06:56:23;11.38;;;2.42;;
25129;SDS011;13308;50.860;13.664;2023-04-03T06:58:50;9.25;;;2.00;;
25129;SDS011;13308;50.860;13.664;2023-04-03T07:01:17;4.82;;;2.10;;
25129;SDS011;13308;50.860;13.664;2023-04-03T07:03:44;5.43;;;2.40;;
25129;SDS011;13308;50.860;13.664;2023-04-03T07:06:10;3.30;;;2.00;;
25129;SDS011;13308;50.860;13.664;2023-04-03T07:08:37;5.70;;;2.15;;
25129;SDS011;13308;50.860;13.664;2023-04-03T07:11:03;2.75;;;2.30;;
25129;SDS011;13308;50.860;13.664;2023-04-03T07:13:29;4.75;;;2.20;;
25129;SDS011;13308;50.860;13.664;2023-04-03T07:15:54;2.50;;;2.30;;
25129;SDS011;13308;50.860;13.664;2023-04-03T07:18:19;3.92;;;2.45;;
25129;SDS011;13308;50.860;13.664;2023-04-03T07:20:46;5.28;;;2.17;;
25129;SDS011;13308;50.860;13.664;2023-04-03T07:23:11;3.10;;;2.40;;
25129;SDS011;13308;50.860;13.664;2023-04-03T07:25:40;2.95;;;2.10;;
25129;SDS011;13308;50.860;13.664;2023-04-03T07:28:07;4.50;;;2.50;;
25129;SDS011;13308;50.860;13.664;2023-04-03T07:30:33;4.10;;;2.40;;
25129;SDS011;13308;50.860;13.664;2023-04-03T07:32:58;2.85;;;2.47;;
25129;SDS011;13308;50.860;13.664;2023-04-03T07:35:23;2.95;;;2.28;;
25129;SDS011;13308;50.860;13.664;2023-04-03T07:37:49;7.22;;;1.88;;
25129;SDS011;13308;50.860;13.664;2023-04-03T07:40:14;3.10;;;2.40;;
25129;SDS011;13308;50.860;13.664;2023-04-03T07:42:39;3.90;;;2.22;;
25129;SDS011;13308;50.860;13.664;2023-04-03T07:45:05;2.50;;;2.15;;
25129;SDS011;13308;50.860;13.664;2023-04-03T07:47:30;6.68;;;2.55;;
25129;SDS011;13308;50.860;13.664;2023-04-03T07:49:56;2.88;;;2.17;;
25129;SDS011;13308;50.860;13.664;2023-04-03T07:52:22;7.95;;;2.30;;
25129;SDS011;13308;50.860;13.664;2023-04-03T07:54:47;4.28;;;2.55;;
25129;SDS011;13308;50.860;13.664;2023-04-03T07:57:13;4.47;;;2.33;;
25129;SDS011;13308;50.860;13.664;2023-04-03T07:59:38;11.45;;;2.58;;
25129;SDS011;13308;50.860;13.664;2023-04-03T08:02:04;4.03;;;2.50;;
25129;SDS011;13308;50.860;13.664;2023-04-03T08:04:30;2.25;;;1.95;;
25129;SDS011;13308;50.860;13.664;2023-04-03T08:06:55;5.25;;;2.28;;
25129;SDS011;13308;50.860;13.664;2023-04-03T08:09:21;4.78;;;1.95;;
25129;SDS011;13308;50.860;13.664;2023-04-03T08:11:47;2.97;;;2.00;;
25129;SDS011;13308;50.860;13.664;2023-04-03T08:14:12;3.50;;;2.58;;
25129;SDS011;13308;50.860;13.664;2023-04-03T08:16:42;5.05;;;2.67;;
25129;SDS011;13308;50.860;13.664;2023-04-03T08:19:08;7.65;;;3.10;;
25129;SDS011;13308;50.860;13.664;2023-04-03T08:21:35;5.38;;;2.35;;
25129;SDS011;13308;50.860;13.664;2023-04-03T08:24:01;9.23;;;2.75;;
25129;SDS011;13308;50.860;13.664;2023-04-03T08:26:28;6.82;;;2.65;;
25129;SDS011;13308;50.860;13.664;2023-04-03T08:28:53;3.60;;;2.13;;
25129;SDS011;13308;50.860;13.664;2023-04-03T08:31:19;3.17;;;2.15;;
25129;SDS011;13308;50.860;13.664;2023-04-03T08:33:45;3.40;;;2.88;;
25129;SDS011;13308;50.860;13.664;2023-04-03T08:36:18;5.25;;;2.75;;
25129;SDS011;13308;50.860;13.664;2023-04-03T08:38:48;3.67;;;2.40;;
25129;SDS011;13308;50.860;13.664;2023-04-03T08:41:20;3.50;;;2.78;;
25129;SDS011;13308;50.860;13.664;2023-04-03T08:44:12;3.70;;;2.30;;
25129;SDS011;13308;50.860;13.664;2023-04-03T08:49:30;6.45;;;2.65;;
25129;SDS011;13308;50.860;13.664;2023-04-03T08:52:13;8.15;;;2.30;;
25129;SDS011;13308;50.860;13.664;2023-04-03T08:57:15;3.00;;;2.35;;
25129;SDS011;13308;50.860;13.664;2023-04-03T08:59:42;7.85;;;2.42;;
25129;SDS011;13308;50.860;13.664;2023-04-03T09:02:24;7.57;;;2.45;;
25129;SDS011;13308;50.860;13.664;2023-04-03T09:04:57;3.72;;;2.63;;
25129;SDS011;13308;50.860;13.664;2023-04-03T09:07:26;3.92;;;2.80;;
25129;SDS011;13308;50.860;13.664;2023-04-03T09:10:01;3.33;;;2.40;;
25129;SDS011;13308;50.860;13.664;2023-04-03T09:12:29;3.80;;;2.67;;
25129;SDS011;13308;50.860;13.664;2023-04-03T09:17:49;2.42;;;2.28;;
25129;SDS011;13308;50.860;13.664;2023-04-03T09:20:29;4.47;;;2.25;;
25129;SDS011;13308;50.860;13.664;2023-04-03T09:25:56;2.67;;;2.00;;
25129;SDS011;13308;50.860;13.664;2023-04-03T09:28:30;4.93;;;1.90;;
25129;SDS011;13308;50.860;13.664;2023-04-03T09:30:59;2.50;;;2.30;;
25129;SDS011;13308;50.860;13.664;2023-04-03T09:33:25;2.47;;;2.05;;
25129;SDS011;13308;50.860;13.664;2023-04-03T09:35:52;6.88;;;3.60;;
25129;SDS011;13308;50.860;13.664;2023-04-03T09:38:19;6.00;;;2.78;;
25129;SDS011;13308;50.860;13.664;2023-04-03T09:40:47;2.65;;;2.40;;
25129;SDS011;13308;50.860;13.664;2023-04-03T09:43:26;3.58;;;2.42;;
25129;SDS011;13308;50.860;13.664;2023-04-03T09:45:53;2.03;;;1.80;;
25129;SDS011;13308;50.860;13.664;2023-04-03T09:48:21;2.45;;;2.25;;
25129;SDS011;13308;50.860;13.664;2023-04-03T09:53:32;3.28;;;2.35;;
25129;SDS011;13308;50.860;13.664;2023-04-03T09:55:58;7.07;;;2.40;;
25129;SDS011;13308;50.860;13.664;2023-04-03T10:00:55;3.67;;;1.90;;
25129;SDS011;13308;50.860;13.664;2023-04-03T10:03:32;5.22;;;2.38;;
25129;SDS011;13308;50.860;13.664;2023-04-03T10:06:00;4.22;;;1.75;;
25129;SDS011;13308;50.860;13.664;2023-04-03T10:08:29;4.90;;;1.90;;
25129;SDS011;13308;50.860;13.664;2023-04-03T10:11:06;3.13;;;2.30;;
25129;SDS011;13308;50.860;13.664;2023-04-03T10:13:50;3.90;;;3.03;;
25129;SDS011;13308;50.860;13.664;2023-04-03T10:16:45;4.97;;;2.10;;
25129;SDS011;13308;50.860;13.664;2023-04-03T10:21:45;3.17;;;2.42;;
25129;SDS011;13308;50.860;13.664;2023-04-03T10:24:23;4.45;;;2.05;;
25129;SDS011;13308;50.860;13.664;2023-04-03T10:27:08;3.08;;;2.15;;
25129;SDS011;13308;50.860;13.664;2023-04-03T10:32:28;3.17;;;1.50;;
25129;SDS011;13308;50.860;13.664;2023-04-03T10:40:31;3.50;;;1.73;;
25129;SDS011;13308;50.860;13.664;2023-04-03T10:43:16;3.03;;;1.95;;
25129;SDS011;13308;50.860;13.664;2023-04-03T10:46:01;3.80;;;1.88;;
25129;SDS011;13308;50.860;13.664;2023-04-03T10:56:56;2.65;;;2.03;;
25129;SDS011;13308;50.860;13.664;2023-04-03T11:02:01;2.25;;;1.73;;
25129;SDS011;13308;50.860;13.664;2023-04-03T11:04:34;2.55;;;1.70;;
25129;SDS011;13308;50.860;13.664;2023-04-03T11:07:17;5.63;;;1.60;;
25129;SDS011;13308;50.860;13.664;2023-04-03T11:09:47;7.18;;;1.80;;
25129;SDS011;13308;50.860;13.664;2023-04-03T11:12:27;5.95;;;2.83;;
25129;SDS011;13308;50.860;13.664;2023-04-03T11:15:00;5.72;;;2.33;;
25129;SDS011;13308;50.860;13.664;2023-04-03T11:17:34;6.20;;;1.80;;
25129;SDS011;13308;50.860;13.664;2023-04-03T11:20:15;3.35;;;1.88;;
25129;SDS011;13308;50.860;13.664;2023-04-03T11:23:00;4.22;;;1.63;;
25129;SDS011;13308;50.860;13.664;2023-04-03T11:25:29;3.25;;;1.75;;
25129;SDS011;13308;50.860;13.664;2023-04-03T11:27:59;4.32;;;2.45;;
25129;SDS011;13308;50.860;13.664;2023-04-03T11:30:31;8.15;;;2.20;;
25129;SDS011;13308;50.860;13.664;2023-04-03T11:33:13;1.77;;;1.48;;
25129;SDS011;13308;50.860;13.664;2023-04-03T11:35:47;4.93;;;1.65;;
25129;SDS011;13308;50.860;13.664;2023-04-03T11:38:18;4.90;;;1.42;;
25129;SDS011;13308;50.860;13.664;2023-04-03T11:40:48;4.25;;;1.38;;
25129;SDS011;13308;50.860;13.664;2023-04-03T11:43:22;5.78;;;1.60;;
25129;SDS011;13308;50.860;13.664;2023-04-03T11:45:55;2.13;;;1.10;;
25129;SDS011;13308;50.860;13.664;2023-04-03T11:50:57;3.85;;;1.40;;
25129;SDS011;13308;50.860;13.664;2023-04-03T11:56:03;4.00;;;1.00;;
25129;SDS011;13308;50.860;13.664;2023-04-03T11:58:33;2.13;;;1.23;;
25129;SDS011;13308;50.860;13.664;2023-04-03T12:01:06;4.40;;;1.23;;
25129;SDS011;13308;50.860;13.664;2023-04-03T12:03:34;2.35;;;0.90;;
25129;SDS011;13308;50.860;13.664;2023-04-03T12:09:00;1.55;;;0.98;;
25129;SDS011;13308;50.860;13.664;2023-04-03T12:11:29;1.30;;;1.00;;
25129;SDS011;13308;50.860;13.664;2023-04-03T12:16:28;1.20;;;1.10;;
25129;SDS011;13308;50.860;13.664;2023-04-03T12:34:48;3.50;;;1.40;;
25129;SDS011;13308;50.860;13.664;2023-04-03T12:37:35;3.90;;;1.60;;
25129;SDS011;13308;50.860;13.664;2023-04-03T12:43:15;2.55;;;1.08;;
25129;SDS011;13308;50.860;13.664;2023-04-03T12:45:58;2.20;;;1.23;;
25129;SDS011;13308;50.860;13.664;2023-04-03T12:48:29;5.13;;;1.45;;
25129;SDS011;13308;50.860;13.664;2023-04-03T12:50:57;0.80;;;0.80;;
25129;SDS011;13308;50.860;13.664;2023-04-03T12:53:28;2.58;;;1.17;;
25129;SDS011;13308;50.860;13.664;2023-04-03T12:58:51;1.60;;;1.30;;
25129;SDS011;13308;50.860;13.664;2023-04-03T13:01:25;1.98;;;1.30;;
25129;SDS011;13308;50.860;13.664;2023-04-03T13:03:55;3.58;;;1.08;;
25129;SDS011;13308;50.860;13.664;2023-04-03T13:06:30;1.70;;;1.30;;
25129;SDS011;13308;50.860;13.664;2023-04-03T13:09:00;1.27;;;1.02;;
25129;SDS011;13308;50.860;13.664;2023-04-03T13:11:27;2.25;;;1.23;;
25129;SDS011;13308;50.860;13.664;2023-04-03T13:13:59;1.40;;;1.00;;
25129;SDS011;13308;50.860;13.664;2023-04-03T13:16:27;2.00;;;1.15;;
25129;SDS011;13308;50.860;13.664;2023-04-03T13:18:53;1.98;;;1.20;;
25129;SDS011;13308;50.860;13.664;2023-04-03T13:21:21;0.85;;;0.80;;
25129;SDS011;13308;50.860;13.664;2023-04-03T13:23:53;1.77;;;1.23;;
25129;SDS011;13308;50.860;13.664;2023-04-03T13:26:22;2.13;;;1.25;;
25129;SDS011;13308;50.860;13.664;2023-04-03T13:28:49;1.65;;;0.98;;
25129;SDS011;13308;50.860;13.664;2023-04-03T13:31:31;1.40;;;1.17;;
25129;SDS011;13308;50.860;13.664;2023-04-03T13:34:07;2.08;;;1.08;;
25129;SDS011;13308;50.860;13.664;2023-04-03T13:41:41;1.85;;;1.30;;
25129;SDS011;13308;50.860;13.664;2023-04-03T13:46:45;2.67;;;1.20;;
25129;SDS011;13308;50.860;13.664;2023-04-03T13:49:32;1.95;;;1.50;;
25129;SDS011;13308;50.860;13.664;2023-04-03T13:52:17;2.50;;;1.90;;
25129;SDS011;13308;50.860;13.664;2023-04-03T13:55:02;3.08;;;1.20;;
25129;SDS011;13308;50.860;13.664;2023-04-03T13:58:02;1.42;;;1.15;;
25129;SDS011;13308;50.860;13.664;2023-04-03T14:03:22;4.32;;;1.40;;
25129;SDS011;13308;50.860;13.664;2023-04-03T14:05:49;1.10;;;1.00;;
25129;SDS011;13308;50.860;13.664;2023-04-03T14:08:16;2.58;;;1.17;;
25129;SDS011;13308;50.860;13.664;2023-04-03T14:10:42;1.60;;;1.15;;
25129;SDS011;13308;50.860;13.664;2023-04-03T14:13:09;2.45;;;1.30;;
25129;SDS011;13308;50.860;13.664;2023-04-03T14:15:37;3.00;;;1.10;;
25129;SDS011;13308;50.860;13.664;2023-04-03T14:18:03;2.03;;;1.58;;
25129;SDS011;13308;50.860;13.664;2023-04-03T14:20:28;3.40;;;1.50;;
25129;SDS011;13308;50.860;13.664;2023-04-03T14:22:54;2.08;;;1.60;;
25129;SDS011;13308;50.860;13.664;2023-04-03T14:25:20;3.05;;;1.50;;
25129;SDS011;13308;50.860;13.664;2023-04-03T14:27:48;5.22;;;1.60;;
25129;SDS011;13308;50.860;13.664;2023-04-03T14:30:20;2.78;;;1.55;;
25129;SDS011;13308;50.860;13.664;2023-04-03T14:32:54;1.48;;;1.30;;
25129;SDS011;13308;50.860;13.664;2023-04-03T14:35:20;4.40;;;1.30;;
25129;SDS011;13308;50.860;13.664;2023-04-03T14:37:47;5.95;;;1.50;;
25129;SDS011;13308;50.860;13.664;2023-04-03T14:40:14;4.00;;;1.35;;
25129;SDS011;13308;50.860;13.664;2023-04-03T14:42:42;4.00;;;1.50;;
25129;SDS011;13308;50.860;13.664;2023-04-03T14:45:09;1.33;;;1.20;;
25129;SDS011;13308;50.860;13.664;2023-04-03T14:47:44;5.25;;;1.50;;
25129;SDS011;13308;50.860;13.664;2023-04-03T14:50:26;2.97;;;1.63;;
25129;SDS011;13308;50.860;13.664;2023-04-03T14:52:53;1.98;;;1.48;;
25129;SDS011;13308;50.860;13.664;2023-04-03T14:55:22;2.97;;;1.70;;
25129;SDS011;13308;50.860;13.664;2023-04-03T14:57:49;3.47;;;1.80;;
25129;SDS011;13308;50.860;13.664;2023-04-03T15:00:15;2.42;;;1.40;;
25129;SDS011;13308;50.860;13.664;2023-04-03T15:02:45;4.90;;;1.25;;
25129;SDS011;13308;50.860;13.664;2023-04-03T15:05:11;1.13;;;1.02;;
25129;SDS011;13308;50.860;13.664;2023-04-03T15:07:40;1.35;;;0.93;;
25129;SDS011;13308;50.860;13.664;2023-04-03T15:10:15;2.95;;;1.30;;
25129;SDS011;13308;50.860;13.664;2023-04-03T15:12:41;1.60;;;1.40;;
25129;SDS011;13308;50.860;13.664;2023-04-03T15:15:08;2.20;;;1.25;;
25129;SDS011;13308;50.860;13.664;2023-04-03T15:17:34;3.20;;;1.40;;
25129;SDS011;13308;50.860;13.664;2023-04-03T15:20:00;2.85;;;1.77;;
25129;SDS011;13308;50.860;13.664;2023-04-03T15:22:26;2.90;;;1.38;;
25129;SDS011;13308;50.860;13.664;2023-04-03T15:24:52;1.88;;;1.33;;
25129;SDS011;13308;50.860;13.664;2023-04-03T15:27:17;1.48;;;1.30;;
25129;SDS011;13308;50.860;13.664;2023-04-03T15:29:43;2.75;;;1.10;;
25129;SDS011;13308;50.860;13.664;2023-04-03T15:32:09;3.40;;;1.27;;
25129;SDS011;13308;50.860;13.664;2023-04-03T15:34:35;1.85;;;1.48;;
25129;SDS011;13308;50.860;13.664;2023-04-03T15:37:01;2.28;;;1.30;;
25129;SDS011;13308;50.860;13.664;2023-04-03T15:39:26;1.42;;;1.23;;
25129;SDS011;13308;50.860;13.664;2023-04-03T15:41:51;2.10;;;1.58;;
25129;SDS011;13308;50.860;13.664;2023-04-03T15:44:17;2.70;;;1.20;;
25129;SDS011;13308;50.860;13.664;2023-04-03T15:46:43;2.25;;;1.35;;
25129;SDS011;13308;50.860;13.664;2023-04-03T15:49:09;4.88;;;1.30;;
25129;SDS011;13308;50.860;13.664;2023-04-03T15:51:35;4.10;;;1.17;;
25129;SDS011;13308;50.860;13.664;2023-04-03T15:54:01;1.95;;;1.10;;
25129;SDS011;13308;50.860;13.664;2023-04-03T15:56:26;1.77;;;0.93;;
25129;SDS011;13308;50.860;13.664;2023-04-03T15:58:51;2.25;;;1.10;;
25129;SDS011;13308;50.860;13.664;2023-04-03T16:01:17;1.55;;;1.30;;
25129;SDS011;13308;50.860;13.664;2023-04-03T16:03:42;1.58;;;0.93;;
25129;SDS011;13308;50.860;13.664;2023-04-03T16:06:11;6.18;;;1.48;;
25129;SDS011;13308;50.860;13.664;2023-04-03T16:08:37;1.92;;;1.08;;
25129;SDS011;13308;50.860;13.664;2023-04-03T16:11:03;2.92;;;1.02;;
25129;SDS011;13308;50.860;13.664;2023-04-03T16:13:29;3.30;;;1.13;;
25129;SDS011;13308;50.860;13.664;2023-04-03T16:15:54;2.80;;;1.30;;
25129;SDS011;13308;50.860;13.664;2023-04-03T16:18:20;1.27;;;1.02;;
25129;SDS011;13308;50.860;13.664;2023-04-03T16:20:46;6.15;;;2.00;;
25129;SDS011;13308;50.860;13.664;2023-04-03T16:23:11;2.53;;;1.85;;
25129;SDS011;13308;50.860;13.664;2023-04-03T16:25:37;3.20;;;1.90;;
25129;SDS011;13308;50.860;13.664;2023-04-03T16:28:02;2.60;;;1.60;;
25129;SDS011;13308;50.860;13.664;2023-04-03T16:30:28;2.17;;;1.63;;
25129;SDS011;13308;50.860;13.664;2023-04-03T16:32:53;5.15;;;1.90;;
25129;SDS011;13308;50.860;13.664;2023-04-03T16:35:20;1.88;;;1.52;;
25129;SDS011;13308;50.860;13.664;2023-04-03T16:37:46;1.75;;;1.10;;
25129;SDS011;13308;50.860;13.664;2023-04-03T16:40:11;2.83;;;1.70;;
25129;SDS011;13308;50.860;13.664;2023-04-03T16:42:37;1.60;;;1.40;;
25129;SDS011;13308;50.860;13.664;2023-04-03T16:45:03;2.78;;;1.98;;
25129;SDS011;13308;50.860;13.664;2023-04-03T16:47:29;2.05;;;1.17;;
25129;SDS011;13308;50.860;13.664;2023-04-03T16:49:55;1.80;;;0.88;;
25129;SDS011;13308;50.860;13.664;2023-04-03T16:52:20;3.83;;;1.20;;
25129;SDS011;13308;50.860;13.664;2023-04-03T16:54:45;2.58;;;1.30;;
25129;SDS011;13308;50.860;13.664;2023-04-03T16:57:11;5.28;;;1.25;;
25129;SDS011;13308;50.860;13.664;2023-04-03T16:59:37;3.03;;;1.35;;
25129;SDS011;13308;50.860;13.664;2023-04-03T17:02:02;1.77;;;1.15;;
25129;SDS011;13308;50.860;13.664;2023-04-03T17:04:27;2.70;;;1.33;;
25129;SDS011;13308;50.860;13.664;2023-04-03T17:06:53;2.47;;;1.45;;
25129;SDS011;13308;50.860;13.664;2023-04-03T17:09:18;1.27;;;0.98;;
25129;SDS011;13308;50.860;13.664;2023-04-03T17:11:45;2.85;;;1.35;;
25129;SDS011;13308;50.860;13.664;2023-04-03T17:14:11;2.00;;;1.42;;
25129;SDS011;13308;50.860;13.664;2023-04-03T17:16:37;1.77;;;1.30;;
25129;SDS011;13308;50.860;13.664;2023-04-03T17:19:02;1.52;;;1.20;;
25129;SDS011;13308;50.860;13.664;2023-04-03T17:21:28;1.83;;;1.00;;
25129;SDS011;13308;50.860;13.664;2023-04-03T17:23:54;1.30;;;1.17;;
25129;SDS011;13308;50.860;13.664;2023-04-03T17:26:25;3.33;;;1.30;;
25129;SDS011;13308;50.860;13.664;2023-04-03T17:28:51;3.03;;;1.25;;
25129;SDS011;13308;50.860;13.664;2023-04-03T17:31:17;2.78;;;1.20;;
25129;SDS011;13308;50.860;13.664;2023-04-03T17:33:43;1.67;;;1.20;;
25129;SDS011;13308;50.860;13.664;2023-04-03T17:36:09;1.83;;;1.48;;
25129;SDS011;13308;50.860;13.664;2023-04-03T17:38:35;1.40;;;1.30;;
25129;SDS011;13308;50.860;13.664;2023-04-03T17:41:02;2.97;;;1.58;;
25129;SDS011;13308;50.860;13.664;2023-04-03T17:43:30;1.40;;;1.20;;
25129;SDS011;13308;50.860;13.664;2023-04-03T17:45:59;4.35;;;1.50;;
25129;SDS011;13308;50.860;13.664;2023-04-03T17:48:33;1.50;;;1.35;;
25129;SDS011;13308;50.860;13.664;2023-04-03T17:51:03;1.70;;;1.38;;
25129;SDS011;13308;50.860;13.664;2023-04-03T17:53:29;3.30;;;1.50;;
25129;SDS011;13308;50.860;13.664;2023-04-03T17:55:55;4.28;;;1.42;;
25129;SDS011;13308;50.860;13.664;2023-04-03T17:58:20;2.50;;;1.35;;
25129;SDS011;13308;50.860;13.664;2023-04-03T18:00:45;1.70;;;1.40;;
25129;SDS011;13308;50.860;13.664;2023-04-03T18:03:11;1.55;;;1.42;;
25129;SDS011;13308;50.860;13.664;2023-04-03T18:05:36;3.63;;;1.80;;
25129;SDS011;13308;50.860;13.664;2023-04-03T18:08:02;2.53;;;1.77;;
25129;SDS011;13308;50.860;13.664;2023-04-03T18:10:27;4.90;;;1.70;;
25129;SDS011;13308;50.860;13.664;2023-04-03T18:12:54;4.65;;;1.77;;
25129;SDS011;13308;50.860;13.664;2023-04-03T18:15:20;2.55;;;2.22;;
25129;SDS011;13308;50.860;13.664;2023-04-03T18:17:48;4.15;;;1.35;;
25129;SDS011;13308;50.860;13.664;2023-04-03T18:20:15;2.92;;;1.23;;
25129;SDS011;13308;50.860;13.664;2023-04-03T18:22:41;1.42;;;1.17;;
25129;SDS011;13308;50.860;13.664;2023-04-03T18:25:07;2.58;;;1.20;;
25129;SDS011;13308;50.860;13.664;2023-04-03T18:27:35;1.95;;;1.38;;
25129;SDS011;13308;50.860;13.664;2023-04-03T18:30:04;4.50;;;1.48;;
25129;SDS011;13308;50.860;13.664;2023-04-03T18:32:33;4.88;;;1.52;;
25129;SDS011;13308;50.860;13.664;2023-04-03T18:34:58;1.83;;;1.42;;
